createdAt,value
2022-09-28T00:00:47.973Z,25.45
2022-09-28T00:03:20.257Z,25.50
2022-09-28T00:05:50.942Z,25.45
2022-09-28T00:08:27.895Z,25.44
2022-09-28T00:11:05.537Z,25.40
2022-09-28T00:13:35.742Z,25.44
2022-09-28T00:16:07.965Z,25.47
2022-09-28T00:18:38.001Z,25.45
2022-09-28T00:21:13.586Z,25.45
2022-09-28T00:24:01.390Z,25.37
2022-09-28T00:26:38.475Z,25.40
2022-09-28T00:29:17.566Z,25.40
2022-09-28T00:31:52.681Z,25.40
2022-09-28T00:34:31.818Z,25.43
2022-09-28T00:37:09.372Z,25.41
2022-09-28T00:39:43.413Z,25.42
2022-09-28T00:42:26.716Z,25.43
2022-09-28T00:45:00.100Z,25.40
2022-09-28T00:48:11.164Z,25.38
2022-09-28T00:50:43.108Z,25.41
2022-09-28T00:53:27.898Z,25.41
2022-09-28T00:56:15.108Z,25.39
2022-09-28T00:58:50.075Z,25.38
2022-09-28T01:01:23.333Z,25.40
2022-09-28T01:04:01.545Z,25.44
2022-09-28T01:06:38.472Z,25.46
2022-09-28T01:09:15.748Z,25.57
2022-09-28T01:11:50.792Z,25.67
2022-09-28T01:14:29.099Z,25.77
2022-09-28T01:17:36.737Z,25.79
2022-09-28T01:20:34.044Z,25.79
2022-09-28T01:23:33.190Z,25.83
2022-09-28T01:26:38.061Z,25.92
2022-09-28T01:29:44.183Z,25.99
2022-09-28T01:32:26.639Z,26.01
2022-09-28T01:35:03.473Z,25.99
2022-09-28T01:37:52.335Z,26.02
2022-09-28T01:40:33.154Z,26.04
2022-09-28T01:43:24.710Z,26.15
2022-09-28T01:46:10.560Z,26.13
2022-09-28T01:49:27.889Z,26.18
2022-09-28T01:52:09.178Z,26.17
2022-09-28T01:55:22.168Z,26.03
2022-09-28T01:58:06.352Z,25.88
2022-09-28T02:00:41.788Z,25.85
2022-09-28T02:03:19.813Z,25.68
2022-09-28T02:06:05.929Z,25.64
2022-09-28T02:08:53.961Z,25.50
2022-09-28T02:11:37.281Z,25.51
2022-09-28T02:14:14.654Z,25.45
2022-09-28T02:16:50.958Z,25.47
2022-09-28T02:19:34.008Z,25.47
2022-09-28T02:22:25.777Z,25.41
2022-09-28T02:25:30.111Z,25.41
2022-09-28T02:28:08.817Z,25.36
2022-09-28T02:30:44.087Z,25.31
2022-09-28T02:33:25.383Z,25.31
2022-09-28T02:36:00.405Z,25.30
2022-09-28T02:38:34.813Z,25.30
2022-09-28T02:41:40.717Z,25.33
2022-09-28T02:44:40.464Z,25.32
2022-09-28T02:47:29.683Z,25.33
2022-09-28T02:50:29.110Z,25.32
2022-09-28T02:53:08.576Z,25.30
2022-09-28T02:55:55.566Z,25.33
2022-09-28T02:58:47.935Z,25.33
2022-09-28T03:01:38.743Z,25.28
2022-09-28T03:04:37.587Z,25.30
2022-09-28T03:07:37.066Z,25.26
2022-09-28T03:10:22.238Z,25.28
2022-09-28T03:12:56.645Z,25.26
2022-09-28T03:15:38.124Z,25.18
2022-09-28T03:18:07.936Z,25.22
2022-09-28T03:20:38.046Z,25.24
2022-09-28T03:23:24.386Z,25.18
2022-09-28T03:26:01.064Z,25.16
2022-09-28T03:28:31.026Z,25.18
2022-09-28T03:31:12.895Z,25.10
2022-09-28T03:33:45.746Z,25.09
2022-09-28T03:36:17.687Z,25.12
2022-09-28T03:38:55.822Z,25.11
2022-09-28T03:41:30.065Z,25.09
2022-09-28T03:44:03.571Z,25.15
2022-09-28T03:46:36.138Z,25.16
2022-09-28T03:49:10.427Z,25.12
2022-09-28T03:51:43.959Z,25.14
2022-09-28T03:54:13.516Z,25.10
2022-09-28T03:56:53.287Z,25.07
2022-09-28T03:59:26.891Z,25.06
2022-09-28T04:02:00.228Z,25.10
2022-09-28T04:04:33.953Z,25.09
2022-09-28T04:07:04.408Z,25.06
2022-09-28T04:09:37.607Z,25.10
2022-09-28T04:12:09.848Z,25.11
2022-09-28T04:14:40.209Z,25.07
2022-09-28T04:17:12.794Z,25.07
2022-09-28T04:19:48.706Z,25.07
2022-09-28T04:22:30.995Z,25.02
2022-09-28T04:25:07.647Z,25.10
2022-09-28T04:27:58.693Z,25.06
2022-09-28T04:30:29.555Z,25.05
2022-09-28T04:33:03.134Z,25.08
2022-09-28T04:35:45.112Z,25.04
2022-09-28T04:38:41.486Z,25.04
2022-09-28T04:41:12.334Z,25.07
2022-09-28T04:43:45.847Z,25.05
2022-09-28T04:46:19.526Z,25.08
2022-09-28T04:49:01.436Z,25.07
2022-09-28T04:52:03.753Z,25.02
2022-09-28T04:54:35.845Z,25.04
2022-09-28T04:57:07.062Z,25.00
2022-09-28T04:59:39.788Z,24.98
2022-09-28T05:02:15.460Z,25.02
2022-09-28T05:05:49.058Z,24.93
2022-09-28T05:08:48.618Z,24.99
2022-09-28T05:11:21.400Z,24.99
2022-09-28T05:13:54.514Z,24.98
2022-09-28T05:16:27.992Z,25.04
2022-09-28T05:19:18.906Z,25.03
2022-09-28T05:21:53.008Z,25.04
2022-09-28T05:24:29.683Z,24.99
2022-09-28T05:26:57.463Z,24.99
2022-09-28T05:29:32.200Z,24.98
2022-09-28T05:32:40.468Z,24.97
2022-09-28T05:35:35.502Z,24.96
2022-09-28T05:38:11.341Z,24.98
2022-09-28T05:40:54.291Z,25.00
2022-09-28T05:43:27.459Z,24.98
2022-09-28T05:46:07.800Z,24.95
2022-09-28T05:48:45.215Z,24.94
2022-09-28T05:51:21.532Z,24.97
2022-09-28T05:53:50.109Z,24.93
2022-09-28T05:56:20.172Z,24.90
2022-09-28T05:58:58.497Z,24.95
2022-09-28T06:01:40.522Z,24.95
2022-09-28T06:04:22.582Z,24.99
2022-09-28T06:06:55.078Z,24.93
2022-09-28T06:09:28.810Z,24.98
2022-09-28T06:12:22.049Z,25.14
2022-09-28T06:15:02.854Z,25.43
2022-09-28T06:17:39.960Z,25.64
2022-09-28T06:20:31.412Z,25.42
2022-09-28T06:23:16.703Z,25.38
2022-09-28T06:25:48.192Z,25.61
2022-09-28T06:28:17.780Z,26.48
2022-09-28T06:30:52.091Z,27.15
2022-09-28T06:33:20.833Z,28.24
2022-09-28T06:35:52.174Z,28.08
2022-09-28T06:38:23.806Z,28.45
2022-09-28T06:40:57.139Z,28.67
2022-09-28T06:43:34.145Z,29.32
2022-09-28T06:46:17.469Z,30.21
2022-09-28T06:48:56.117Z,29.18
2022-09-28T06:52:05.082Z,30.33
2022-09-28T06:54:55.809Z,29.56
2022-09-28T06:57:41.091Z,29.75
2022-09-28T07:00:13.225Z,30.02
2022-09-28T07:02:46.960Z,29.80
2022-09-28T07:05:37.270Z,29.96
2022-09-28T07:08:29.177Z,29.66
2022-09-28T07:11:27.336Z,29.72
2022-09-28T07:14:46.801Z,29.70
2022-09-28T07:17:17.787Z,29.78
2022-09-28T07:19:53.975Z,30.10
2022-09-28T07:22:42.188Z,29.25
2022-09-28T07:25:19.684Z,29.56
2022-09-28T07:28:03.167Z,29.72
2022-09-28T07:30:47.188Z,29.86
2022-09-28T07:33:20.391Z,30.17
2022-09-28T07:35:57.344Z,30.65
2022-09-28T07:38:28.966Z,30.94
2022-09-28T07:41:15.487Z,29.77
2022-09-28T07:43:54.887Z,29.65
2022-09-28T07:46:28.555Z,29.54
2022-09-28T07:49:12.472Z,29.43
2022-09-28T07:52:18.775Z,29.53
2022-09-28T07:55:11.647Z,29.24
2022-09-28T07:58:01.252Z,29.68
2022-09-28T08:01:00.381Z,29.00
2022-09-28T08:03:29.152Z,28.80
2022-09-28T08:06:03.633Z,28.18
2022-09-28T08:08:36.296Z,28.03
2022-09-28T08:11:10.733Z,27.48
2022-09-28T08:13:53.025Z,27.24
2022-09-28T08:16:43.924Z,27.13
2022-09-28T08:19:25.668Z,27.12
2022-09-28T08:22:05.223Z,27.02
2022-09-28T08:24:39.041Z,27.27
2022-09-28T08:27:12.684Z,27.42
2022-09-28T08:29:46.650Z,27.41
2022-09-28T08:32:42.676Z,27.30
2022-09-28T08:36:04.709Z,26.70
2022-09-28T08:38:59.241Z,26.47
2022-09-28T08:42:01.096Z,26.61
2022-09-28T08:45:18.100Z,26.67
2022-09-28T08:48:34.188Z,26.85
2022-09-28T08:51:42.477Z,26.72
2022-09-28T08:55:05.444Z,26.47
2022-09-28T08:57:54.331Z,26.72
2022-09-28T09:00:59.881Z,26.55
2022-09-28T09:03:44.954Z,26.38
2022-09-28T09:06:51.449Z,25.72
2022-09-28T09:10:16.638Z,25.91
2022-09-28T09:13:17.643Z,26.13
2022-09-28T09:15:58.808Z,26.13
2022-09-28T09:19:02.328Z,26.39
2022-09-28T09:22:27.279Z,26.70
2022-09-28T09:25:20.527Z,26.71
2022-09-28T09:28:27.702Z,26.76
2022-09-28T09:31:22.809Z,26.71
2022-09-28T09:34:24.828Z,26.70
2022-09-28T09:37:59.765Z,26.70
2022-09-28T09:44:19.381Z,26.62
2022-09-28T09:47:44.501Z,26.58
2022-09-28T09:50:40.734Z,26.67
2022-09-28T09:53:38.607Z,26.63
2022-09-28T09:56:44.617Z,26.64
2022-09-28T09:59:44.731Z,26.76
2022-09-28T10:02:45.162Z,26.90
2022-09-28T10:05:37.932Z,26.98
2022-09-28T10:08:09.391Z,26.76
2022-09-28T10:11:08.660Z,26.67
2022-09-28T10:13:44.813Z,26.68
2022-09-28T10:16:40.181Z,26.85
2022-09-28T10:19:14.869Z,26.74
2022-09-28T10:22:10.853Z,26.72
2022-09-28T10:24:51.350Z,26.67
2022-09-28T10:27:27.555Z,26.60
2022-09-28T10:30:00.864Z,26.67
2022-09-28T10:32:44.865Z,26.50
2022-09-28T10:35:29.939Z,26.45
2022-09-28T10:38:05.642Z,26.39
2022-09-28T10:41:12.074Z,26.49
2022-09-28T10:43:57.428Z,26.84
2022-09-28T10:46:29.524Z,26.75
2022-09-28T10:49:03.703Z,27.12
2022-09-28T10:51:48.291Z,27.04
2022-09-28T10:54:29.505Z,26.41
2022-09-28T10:57:06.283Z,26.58
2022-09-28T10:59:50.577Z,26.29
2022-09-28T11:02:38.556Z,26.38
2022-09-28T11:05:22.168Z,26.22
2022-09-28T11:07:59.423Z,26.21
2022-09-28T11:10:34.771Z,26.16
2022-09-28T11:13:10.998Z,26.17
2022-09-28T11:15:47.018Z,25.90
2022-09-28T11:18:32.573Z,25.79
2022-09-28T11:21:18.298Z,26.00
2022-09-28T11:24:06.495Z,25.94
2022-09-28T11:26:49.912Z,25.87
2022-09-28T11:29:43.411Z,25.79
2022-09-28T11:32:47.107Z,25.77
2022-09-28T11:35:32.874Z,25.83
2022-09-28T11:38:19.269Z,25.65
2022-09-28T11:41:12.350Z,25.22
2022-09-28T11:44:08.604Z,24.90
2022-09-28T11:46:58.576Z,24.90
2022-09-28T11:49:40.261Z,25.00
2022-09-28T11:52:25.444Z,25.25
2022-09-28T11:55:10.591Z,25.30
2022-09-28T11:58:01.722Z,25.23
2022-09-28T12:00:48.582Z,25.21
2022-09-28T12:03:46.495Z,25.34
2022-09-28T12:06:33.272Z,25.44
2022-09-28T12:09:19.938Z,25.42
2022-09-28T12:12:32.713Z,25.50
2022-09-28T12:15:42.153Z,25.57
2022-09-28T12:18:27.502Z,25.48
2022-09-28T12:21:19.399Z,25.72
2022-09-28T12:23:55.684Z,25.93
2022-09-28T12:26:49.180Z,26.03
2022-09-28T12:29:29.825Z,25.83
2022-09-28T12:32:30.421Z,25.89
2022-09-28T12:35:13.748Z,25.94
2022-09-28T12:38:16.599Z,26.10
2022-09-28T12:41:17.019Z,26.05
2022-09-28T12:44:13.401Z,26.01
2022-09-28T12:47:02.297Z,26.35
2022-09-28T12:53:05.648Z,26.61
2022-09-28T12:55:59.022Z,26.67
2022-09-28T12:59:00.665Z,27.00
2022-09-28T13:02:12.366Z,27.03
2022-09-28T13:05:12.920Z,27.17
2022-09-28T13:08:00.832Z,27.30
2022-09-28T13:10:57.869Z,27.29
2022-09-28T13:13:59.889Z,27.51
2022-09-28T13:16:51.298Z,27.51
2022-09-28T13:19:48.943Z,27.43
2022-09-28T13:22:44.405Z,27.43
2022-09-28T13:25:22.820Z,27.21
2022-09-28T13:28:13.377Z,27.03
2022-09-28T13:31:02.517Z,26.81
2022-09-28T13:33:41.237Z,26.77
2022-09-28T13:36:29.465Z,26.87
2022-09-28T13:39:03.656Z,26.86
2022-09-28T13:41:40.599Z,26.68
2022-09-28T13:44:36.753Z,26.98
2022-09-28T13:47:26.715Z,26.92
2022-09-28T13:50:13.354Z,26.92
2022-09-28T13:52:58.163Z,26.89
2022-09-28T13:55:40.923Z,26.83
2022-09-28T13:58:41.681Z,26.70
2022-09-28T14:01:14.769Z,26.74
2022-09-28T14:04:25.355Z,26.72
2022-09-28T14:07:19.790Z,26.32
2022-09-28T14:10:51.234Z,26.35
2022-09-28T14:14:01.157Z,26.36
2022-09-28T14:16:38.686Z,26.71
2022-09-28T14:19:15.801Z,26.84
2022-09-28T14:21:55.507Z,26.68
2022-09-28T14:24:42.139Z,26.52
2022-09-28T14:27:38.454Z,26.56
2022-09-28T14:30:17.810Z,26.66
2022-09-28T14:33:00.104Z,26.72
2022-09-28T14:35:49.321Z,26.82
2022-09-28T14:38:49.531Z,26.74
2022-09-28T14:41:51.196Z,27.01
2022-09-28T14:44:28.032Z,27.16
2022-09-28T14:47:27.282Z,27.11
2022-09-28T14:50:24.807Z,27.10
2022-09-28T14:53:10.672Z,27.16
2022-09-28T14:55:51.056Z,27.20
2022-09-28T14:58:27.876Z,27.11
2022-09-28T15:01:32.075Z,26.99
2022-09-28T15:04:15.294Z,26.95
2022-09-28T15:06:58.543Z,26.82
2022-09-28T15:09:32.606Z,27.01
2022-09-28T15:12:28.448Z,26.69
2022-09-28T15:15:08.716Z,26.78
2022-09-28T15:17:46.324Z,27.08
2022-09-28T15:20:26.757Z,28.11
2022-09-28T15:23:04.474Z,28.41
2022-09-28T15:25:39.301Z,29.41
2022-09-28T15:28:34.131Z,29.52
2022-09-28T15:31:21.502Z,29.18
2022-09-28T15:34:15.935Z,29.05
2022-09-28T15:36:48.478Z,29.33
2022-09-28T15:39:39.828Z,28.99
2022-09-28T15:42:13.788Z,28.82
2022-09-28T15:45:06.968Z,28.36
2022-09-28T15:47:40.283Z,28.17
2022-09-28T15:50:21.877Z,27.98
2022-09-28T15:52:53.111Z,27.95
2022-09-28T15:55:31.191Z,28.44
2022-09-28T15:58:18.250Z,28.61
2022-09-28T16:00:52.878Z,29.94
2022-09-28T16:03:32.698Z,29.99
2022-09-28T16:06:13.017Z,29.96
2022-09-28T16:08:46.149Z,30.75
2022-09-28T16:11:28.059Z,30.34
2022-09-28T16:14:21.469Z,30.06
2022-09-28T16:16:59.953Z,29.44
2022-09-28T16:19:45.949Z,28.78
2022-09-28T16:22:28.713Z,28.29
2022-09-28T16:25:11.064Z,27.88
2022-09-28T16:27:50.529Z,27.54
2022-09-28T16:30:26.809Z,27.55
2022-09-28T16:33:36.898Z,27.55
2022-09-28T16:36:19.140Z,27.30
2022-09-28T16:38:55.042Z,27.17
2022-09-28T16:41:31.948Z,26.96
2022-09-28T16:44:17.387Z,26.66
2022-09-28T16:46:47.051Z,26.62
2022-09-28T16:49:34.140Z,26.59
2022-09-28T16:52:12.095Z,26.55
2022-09-28T16:55:17.649Z,26.46
2022-09-28T16:57:59.503Z,26.35
2022-09-28T17:00:35.683Z,26.26
2022-09-28T17:03:20.212Z,26.05
2022-09-28T17:05:56.633Z,26.08
2022-09-28T17:08:25.277Z,26.04
2022-09-28T17:11:24.547Z,26.06
2022-09-28T17:14:03.816Z,25.91
2022-09-28T17:17:07.317Z,25.99
2022-09-28T17:19:44.512Z,25.93
2022-09-28T17:22:22.845Z,25.89
2022-09-28T17:24:58.684Z,25.86
2022-09-28T17:27:34.811Z,25.84
2022-09-28T17:30:09.912Z,25.74
2022-09-28T17:32:50.793Z,25.82
2022-09-28T17:35:33.204Z,25.73
2022-09-28T17:38:08.561Z,25.73
2022-09-28T17:40:48.358Z,25.74
2022-09-28T17:43:24.024Z,25.71
2022-09-28T17:45:55.822Z,25.71
2022-09-28T17:48:33.750Z,25.69
2022-09-28T17:51:10.236Z,25.71
2022-09-28T17:53:40.501Z,25.65
2022-09-28T17:56:15.950Z,25.68
2022-09-28T17:58:50.657Z,25.60
2022-09-28T18:01:34.188Z,25.64
2022-09-28T18:04:13.224Z,25.63
2022-09-28T18:07:03.940Z,25.60
2022-09-28T18:09:42.848Z,25.56
2022-09-28T18:12:19.357Z,25.57
2022-09-28T18:14:53.347Z,25.56
2022-09-28T18:17:29.473Z,25.54
2022-09-28T18:20:09.951Z,25.56
2022-09-28T18:22:42.737Z,25.55
2022-09-28T18:25:24.624Z,25.58
2022-09-28T18:28:02.996Z,25.58
2022-09-28T18:30:40.967Z,25.56
2022-09-28T18:33:17.103Z,25.56
2022-09-28T18:35:59.732Z,25.50
2022-09-28T18:38:40.451Z,25.50
2022-09-28T18:41:24.112Z,25.52
2022-09-28T18:44:01.052Z,25.56
2022-09-28T18:46:47.387Z,25.54
2022-09-28T18:49:23.560Z,25.54
2022-09-28T18:52:04.864Z,25.52
2022-09-28T18:54:43.712Z,25.48
2022-09-28T18:57:17.730Z,25.47
2022-09-28T18:59:54.723Z,25.48
2022-09-28T19:02:25.836Z,25.47
2022-09-28T19:05:09.419Z,25.45
2022-09-28T19:07:48.640Z,25.45
2022-09-28T19:10:23.055Z,25.43
2022-09-28T19:13:06.367Z,25.40
2022-09-28T19:15:40.283Z,25.42
2022-09-28T19:18:21.357Z,25.41
2022-09-28T19:20:57.183Z,25.41
2022-09-28T19:23:30.681Z,25.44
2022-09-28T19:26:06.957Z,25.46
2022-09-28T19:28:46.010Z,25.45
2022-09-28T19:31:29.093Z,25.43
2022-09-28T19:34:02.405Z,25.35
2022-09-28T19:36:38.372Z,25.36
2022-09-28T19:39:15.307Z,25.37
2022-09-28T19:41:54.411Z,25.37
2022-09-28T19:44:36.514Z,25.37
2022-09-28T19:47:17.339Z,25.38
2022-09-28T19:49:55.967Z,25.39
2022-09-28T19:52:38.103Z,25.40
2022-09-28T19:55:19.149Z,25.37
2022-09-28T19:57:58.934Z,25.37
2022-09-28T20:00:35.141Z,25.36
2022-09-28T20:03:13.520Z,25.34
2022-09-28T20:05:46.941Z,25.37
2022-09-28T20:08:31.702Z,25.32
2022-09-28T20:11:13.179Z,25.34
2022-09-28T20:13:52.887Z,25.35
2022-09-28T20:16:27.591Z,25.37
2022-09-28T20:19:07.387Z,25.32
2022-09-28T20:21:43.848Z,25.32
2022-09-28T20:24:17.321Z,25.32
2022-09-28T20:26:50.138Z,25.31
2022-09-28T20:29:38.183Z,25.29
2022-09-28T20:32:17.176Z,25.28
2022-09-28T20:34:58.182Z,25.32
2022-09-28T20:37:31.348Z,25.31
2022-09-28T20:40:07.575Z,25.30
2022-09-28T20:42:42.533Z,25.26
2022-09-28T20:45:24.282Z,25.27
2022-09-28T20:48:00.599Z,25.28
2022-09-28T20:50:41.338Z,25.28
2022-09-28T20:53:18.216Z,25.26
2022-09-28T20:56:14.339Z,25.29
2022-09-28T20:58:55.116Z,25.31
2022-09-28T21:01:36.736Z,25.27
2022-09-28T21:04:14.760Z,25.29
2022-09-28T21:06:48.534Z,25.35
2022-09-28T21:09:30.183Z,25.51
2022-09-28T21:12:12.819Z,25.58
2022-09-28T21:14:49.316Z,25.71
2022-09-28T21:17:27.939Z,25.78
2022-09-28T21:20:06.382Z,25.81
2022-09-28T21:22:43.747Z,25.88
2022-09-28T21:25:19.871Z,25.97
2022-09-28T21:27:50.744Z,26.06
2022-09-28T21:30:31.723Z,26.17
2022-09-28T21:33:10.560Z,26.20
2022-09-28T21:35:46.284Z,26.29
2022-09-28T21:38:22.052Z,26.48
2022-09-28T21:41:02.441Z,26.55
2022-09-28T21:43:40.931Z,26.55
2022-09-28T21:46:17.639Z,26.56
2022-09-28T21:48:53.837Z,26.57
2022-09-28T21:51:33.278Z,26.48
2022-09-28T21:54:06.719Z,26.50
2022-09-28T21:56:45.185Z,26.37
2022-09-28T21:59:23.426Z,26.11
2022-09-28T22:01:59.259Z,25.93
2022-09-28T22:04:29.234Z,25.75
2022-09-28T22:07:03.313Z,25.66
2022-09-28T22:09:39.101Z,25.56
2022-09-28T22:12:17.629Z,25.51
2022-09-28T22:14:54.023Z,25.46
2022-09-28T22:17:24.945Z,25.36
2022-09-28T22:19:58.515Z,25.36
2022-09-28T22:22:32.191Z,25.33
2022-09-28T22:25:13.497Z,25.33
2022-09-28T22:27:54.319Z,25.30
2022-09-28T22:30:30.555Z,25.29
2022-09-28T22:33:06.675Z,25.26
2022-09-28T22:35:42.787Z,25.23
2022-09-28T22:38:16.228Z,25.24
2022-09-28T22:40:58.526Z,25.18
2022-09-28T22:43:37.009Z,25.20
2022-09-28T22:46:27.143Z,25.20
2022-09-28T22:49:12.352Z,25.22
2022-09-28T22:51:48.137Z,25.21
2022-09-28T22:54:23.872Z,25.15
2022-09-28T22:57:00.488Z,25.19
2022-09-28T22:59:27.990Z,25.16
2022-09-28T23:02:06.236Z,25.15
2022-09-28T23:04:47.001Z,25.18
2022-09-28T23:07:21.565Z,25.15
2022-09-28T23:09:59.794Z,25.13
2022-09-28T23:12:42.213Z,25.17
2022-09-28T23:15:21.051Z,25.13
2022-09-28T23:18:00.425Z,25.11
2022-09-28T23:20:38.386Z,25.09
2022-09-28T23:23:16.418Z,25.13
2022-09-28T23:25:49.633Z,25.16
2022-09-28T23:28:39.732Z,25.10
2022-09-28T23:31:17.192Z,25.13
2022-09-28T23:34:09.238Z,25.11
2022-09-28T23:36:44.678Z,25.07
2022-09-28T23:39:23.360Z,25.12
2022-09-28T23:41:54.214Z,25.09
2022-09-28T23:44:31.295Z,25.05
2022-09-28T23:47:04.296Z,25.05
2022-09-28T23:49:36.583Z,25.07
2022-09-28T23:52:15.004Z,25.04
2022-09-28T23:54:48.613Z,25.07
2022-09-28T23:57:29.286Z,25.03
